sensor_id;sensor_type;location;lat;lon;timestamp;pressure;altitude;pressure_sealevel;temperature;humidity
40788;BME280;26497;52.494;7.546;2022-08-24T00:00:56;101051.06;;;25.12;48.66
40788;BME280;26497;52.494;7.546;2022-08-24T00:03:23;101052.56;;;25.17;48.74
40788;BME280;26497;52.494;7.546;2022-08-24T00:05:50;101050.84;;;25.16;48.67
40788;BME280;26497;52.494;7.546;2022-08-24T00:08:19;101048.81;;;25.04;49.10
40788;BME280;26497;52.494;7.546;2022-08-24T00:10:46;101049.06;;;24.99;49.12
40788;BME280;26497;52.494;7.546;2022-08-24T00:13:13;101046.34;;;24.99;49.11
40788;BME280;26497;52.494;7.546;2022-08-24T00:15:40;101047.19;;;24.84;49.54
40788;BME280;26497;52.494;7.546;2022-08-24T00:18:07;101052.28;;;24.72;49.78
40788;BME280;26497;52.494;7.546;2022-08-24T00:20:34;101059.03;;;24.64;50.04
40788;BME280;26497;52.494;7.546;2022-08-24T00:23:00;101059.53;;;24.54;50.27
40788;BME280;26497;52.494;7.546;2022-08-24T00:25:29;101061.75;;;24.46;50.56
40788;BME280;26497;52.494;7.546;2022-08-24T00:27:56;101054.94;;;24.39;50.99
40788;BME280;26497;52.494;7.546;2022-08-24T00:30:24;101057.78;;;24.53;50.74
40788;BME280;26497;52.494;7.546;2022-08-24T00:32:51;101059.44;;;24.56;50.77
40788;BME280;26497;52.494;7.546;2022-08-24T00:35:19;101062.00;;;24.41;51.31
40788;BME280;26497;52.494;7.546;2022-08-24T00:37:48;101053.44;;;24.33;51.57
40788;BME280;26497;52.494;7.546;2022-08-24T00:40:18;101054.63;;;24.27;51.64
40788;BME280;26497;52.494;7.546;2022-08-24T00:42:47;101058.53;;;24.22;51.81
40788;BME280;26497;52.494;7.546;2022-08-24T00:45:16;101050.97;;;24.11;51.88
40788;BME280;26497;52.494;7.546;2022-08-24T00:47:45;101058.59;;;24.03;52.30
40788;BME280;26497;52.494;7.546;2022-08-24T00:50:17;101057.56;;;24.05;52.39
40788;BME280;26497;52.494;7.546;2022-08-24T00:52:46;101063.81;;;24.06;52.14
40788;BME280;26497;52.494;7.546;2022-08-24T00:55:17;101054.34;;;23.97;52.49
40788;BME280;26497;52.494;7.546;2022-08-24T00:57:48;101058.78;;;23.98;52.64
40788;BME280;26497;52.494;7.546;2022-08-24T01:00:19;101057.88;;;23.99;52.69
40788;BME280;26497;52.494;7.546;2022-08-24T01:02:48;101059.97;;;23.92;52.76
40788;BME280;26497;52.494;7.546;2022-08-24T01:05:16;101058.56;;;23.85;53.04
40788;BME280;26497;52.494;7.546;2022-08-24T01:07:44;101056.25;;;23.95;52.99
40788;BME280;26497;52.494;7.546;2022-08-24T01:10:13;101062.19;;;23.84;53.35
40788;BME280;26497;52.494;7.546;2022-08-24T01:12:43;101062.19;;;23.84;53.40
40788;BME280;26497;52.494;7.546;2022-08-24T01:15:14;101059.66;;;23.81;53.51
40788;BME280;26497;52.494;7.546;2022-08-24T01:17:45;101049.75;;;23.81;53.73
40788;BME280;26497;52.494;7.546;2022-08-24T01:20:30;101058.47;;;23.86;53.53
40788;BME280;26497;52.494;7.546;2022-08-24T01:23:02;101061.06;;;23.70;53.75
40788;BME280;26497;52.494;7.546;2022-08-24T01:25:33;101063.00;;;23.67;54.10
40788;BME280;26497;52.494;7.546;2022-08-24T01:28:04;101059.97;;;23.55;54.42
40788;BME280;26497;52.494;7.546;2022-08-24T01:30:31;101059.63;;;23.44;54.81
40788;BME280;26497;52.494;7.546;2022-08-24T01:33:00;101063.50;;;23.38;55.19
40788;BME280;26497;52.494;7.546;2022-08-24T01:35:27;101058.38;;;23.51;54.88
40788;BME280;26497;52.494;7.546;2022-08-24T01:37:56;101058.09;;;23.58;54.53
40788;BME280;26497;52.494;7.546;2022-08-24T01:40:30;101057.22;;;23.38;55.44
40788;BME280;26497;52.494;7.546;2022-08-24T01:43:00;101060.00;;;23.17;56.18
40788;BME280;26497;52.494;7.546;2022-08-24T01:45:29;101070.00;;;23.13;56.31
40788;BME280;26497;52.494;7.546;2022-08-24T01:47:56;101063.63;;;23.16;55.99
40788;BME280;26497;52.494;7.546;2022-08-24T01:50:24;101069.72;;;23.20;56.08
40788;BME280;26497;52.494;7.546;2022-08-24T01:52:51;101063.69;;;23.15;56.10
40788;BME280;26497;52.494;7.546;2022-08-24T01:55:18;101067.59;;;23.07;56.19
40788;BME280;26497;52.494;7.546;2022-08-24T01:57:45;101063.91;;;23.10;55.62
40788;BME280;26497;52.494;7.546;2022-08-24T02:00:14;101064.84;;;23.09;55.82
40788;BME280;26497;52.494;7.546;2022-08-24T02:02:42;101070.44;;;23.04;55.87
40788;BME280;26497;52.494;7.546;2022-08-24T02:05:09;101078.34;;;22.88;56.46
40788;BME280;26497;52.494;7.546;2022-08-24T02:07:37;101070.63;;;22.80;56.56
40788;BME280;26497;52.494;7.546;2022-08-24T02:10:05;101072.16;;;22.86;56.42
40788;BME280;26497;52.494;7.546;2022-08-24T02:12:33;101070.00;;;22.94;56.56
40788;BME280;26497;52.494;7.546;2022-08-24T02:15:00;101080.81;;;22.93;56.65
40788;BME280;26497;52.494;7.546;2022-08-24T02:17:29;101082.91;;;22.86;56.65
40788;BME280;26497;52.494;7.546;2022-08-24T02:19:56;101080.16;;;22.88;56.89
40788;BME280;26497;52.494;7.546;2022-08-24T02:22:22;101081.19;;;22.85;56.57
40788;BME280;26497;52.494;7.546;2022-08-24T02:24:49;101083.88;;;22.85;56.64
40788;BME280;26497;52.494;7.546;2022-08-24T02:27:16;101087.22;;;22.90;56.32
40788;BME280;26497;52.494;7.546;2022-08-24T02:29:43;101081.59;;;22.76;56.99
40788;BME280;26497;52.494;7.546;2022-08-24T02:32:11;101082.59;;;22.73;56.81
40788;BME280;26497;52.494;7.546;2022-08-24T02:34:40;101084.06;;;22.80;56.43
40788;BME280;26497;52.494;7.546;2022-08-24T02:37:08;101087.09;;;22.73;56.64
40788;BME280;26497;52.494;7.546;2022-08-24T02:39:35;101084.28;;;22.55;57.45
40788;BME280;26497;52.494;7.546;2022-08-24T02:42:02;101086.16;;;22.53;57.60
40788;BME280;26497;52.494;7.546;2022-08-24T02:44:29;101085.75;;;22.62;57.36
40788;BME280;26497;52.494;7.546;2022-08-24T02:46:56;101080.25;;;22.65;56.99
40788;BME280;26497;52.494;7.546;2022-08-24T02:49:23;101079.38;;;22.65;56.79
40788;BME280;26497;52.494;7.546;2022-08-24T02:51:51;101083.25;;;22.78;56.46
40788;BME280;26497;52.494;7.546;2022-08-24T02:54:18;101075.41;;;22.74;56.30
40788;BME280;26497;52.494;7.546;2022-08-24T02:56:45;101076.91;;;22.60;56.74
40788;BME280;26497;52.494;7.546;2022-08-24T02:59:12;101075.78;;;22.45;57.50
40788;BME280;26497;52.494;7.546;2022-08-24T03:01:40;101078.06;;;22.32;58.71
40788;BME280;26497;52.494;7.546;2022-08-24T03:04:07;101076.88;;;22.39;58.30
40788;BME280;26497;52.494;7.546;2022-08-24T03:06:34;101079.31;;;22.66;56.37
40788;BME280;26497;52.494;7.546;2022-08-24T03:09:02;101082.63;;;22.52;56.87
40788;BME280;26497;52.494;7.546;2022-08-24T03:11:29;101082.72;;;22.29;57.38
40788;BME280;26497;52.494;7.546;2022-08-24T03:13:56;101084.03;;;22.18;57.62
40788;BME280;26497;52.494;7.546;2022-08-24T03:16:23;101094.84;;;22.17;57.71
40788;BME280;26497;52.494;7.546;2022-08-24T03:18:50;101096.59;;;22.18;57.40
40788;BME280;26497;52.494;7.546;2022-08-24T03:21:17;101096.72;;;22.15;57.35
40788;BME280;26497;52.494;7.546;2022-08-24T03:23:44;101100.41;;;22.12;57.22
40788;BME280;26497;52.494;7.546;2022-08-24T03:26:12;101107.72;;;22.08;57.43
40788;BME280;26497;52.494;7.546;2022-08-24T03:28:39;101101.50;;;22.08;57.61
40788;BME280;26497;52.494;7.546;2022-08-24T03:31:06;101094.13;;;22.13;57.29
40788;BME280;26497;52.494;7.546;2022-08-24T03:33:33;101101.69;;;22.24;57.43
40788;BME280;26497;52.494;7.546;2022-08-24T03:36:00;101100.28;;;22.15;57.51
40788;BME280;26497;52.494;7.546;2022-08-24T03:38:27;101098.47;;;22.16;57.46
40788;BME280;26497;52.494;7.546;2022-08-24T03:40:54;101097.34;;;22.21;57.46
40788;BME280;26497;52.494;7.546;2022-08-24T03:43:23;101091.97;;;22.21;57.46
40788;BME280;26497;52.494;7.546;2022-08-24T03:46:07;101083.69;;;22.26;57.28
40788;BME280;26497;52.494;7.546;2022-08-24T03:48:37;101091.72;;;22.28;57.42
40788;BME280;26497;52.494;7.546;2022-08-24T03:51:05;101087.94;;;22.11;57.63
40788;BME280;26497;52.494;7.546;2022-08-24T03:53:32;101083.88;;;22.01;57.85
40788;BME280;26497;52.494;7.546;2022-08-24T03:55:59;101089.38;;;21.98;57.90
40788;BME280;26497;52.494;7.546;2022-08-24T03:58:27;101084.94;;;21.97;58.14
40788;BME280;26497;52.494;7.546;2022-08-24T04:00:54;101080.50;;;21.95;58.33
40788;BME280;26497;52.494;7.546;2022-08-24T04:03:22;101084.25;;;21.91;58.32
40788;BME280;26497;52.494;7.546;2022-08-24T04:05:49;101082.66;;;21.87;58.86
40788;BME280;26497;52.494;7.546;2022-08-24T04:08:16;101078.38;;;22.04;57.92
40788;BME280;26497;52.494;7.546;2022-08-24T04:10:43;101087.94;;;22.11;58.17
40788;BME280;26497;52.494;7.546;2022-08-24T04:13:11;101091.06;;;22.00;58.32
40788;BME280;26497;52.494;7.546;2022-08-24T04:15:40;101099.56;;;21.89;59.14
40788;BME280;26497;52.494;7.546;2022-08-24T04:18:07;101094.81;;;21.96;58.48
40788;BME280;26497;52.494;7.546;2022-08-24T04:20:37;101096.75;;;21.92;58.20
40788;BME280;26497;52.494;7.546;2022-08-24T04:23:04;101103.44;;;21.82;58.72
40788;BME280;26497;52.494;7.546;2022-08-24T04:25:38;101110.09;;;21.94;57.64
40788;BME280;26497;52.494;7.546;2022-08-24T04:28:05;101118.34;;;21.89;57.84
40788;BME280;26497;52.494;7.546;2022-08-24T04:30:32;101115.44;;;21.73;58.46
40788;BME280;26497;52.494;7.546;2022-08-24T04:33:00;101122.53;;;21.74;58.58
40788;BME280;26497;52.494;7.546;2022-08-24T04:35:27;101126.97;;;21.75;58.39
40788;BME280;26497;52.494;7.546;2022-08-24T04:37:54;101124.28;;;21.75;58.22
40788;BME280;26497;52.494;7.546;2022-08-24T04:40:21;101126.28;;;21.70;58.61
40788;BME280;26497;52.494;7.546;2022-08-24T04:42:47;101127.03;;;21.74;58.28
40788;BME280;26497;52.494;7.546;2022-08-24T04:45:14;101128.31;;;21.63;58.63
40788;BME280;26497;52.494;7.546;2022-08-24T04:47:42;101120.09;;;21.68;58.47
40788;BME280;26497;52.494;7.546;2022-08-24T04:50:10;101124.09;;;21.80;57.51
40788;BME280;26497;52.494;7.546;2022-08-24T04:52:37;101124.03;;;21.82;57.58
40788;BME280;26497;52.494;7.546;2022-08-24T04:55:05;101134.72;;;21.83;57.98
40788;BME280;26497;52.494;7.546;2022-08-24T04:57:32;101137.50;;;21.80;58.12
40788;BME280;26497;52.494;7.546;2022-08-24T04:59:59;101133.72;;;21.86;58.10
40788;BME280;26497;52.494;7.546;2022-08-24T05:02:27;101126.03;;;21.99;57.78
40788;BME280;26497;52.494;7.546;2022-08-24T05:04:55;101134.44;;;22.12;56.97
40788;BME280;26497;52.494;7.546;2022-08-24T05:07:23;101132.41;;;22.18;56.73
40788;BME280;26497;52.494;7.546;2022-08-24T05:09:50;101133.25;;;22.19;57.07
40788;BME280;26497;52.494;7.546;2022-08-24T05:12:17;101133.00;;;22.25;57.27
40788;BME280;26497;52.494;7.546;2022-08-24T05:14:45;101147.38;;;22.46;55.92
40788;BME280;26497;52.494;7.546;2022-08-24T05:17:12;101145.38;;;22.51;56.19
40788;BME280;26497;52.494;7.546;2022-08-24T05:19:38;101143.88;;;22.65;55.96
40788;BME280;26497;52.494;7.546;2022-08-24T05:22:05;101146.91;;;22.78;56.04
40788;BME280;26497;52.494;7.546;2022-08-24T05:24:33;101153.91;;;23.03;55.46
40788;BME280;26497;52.494;7.546;2022-08-24T05:27:00;101156.22;;;23.31;53.90
40788;BME280;26497;52.494;7.546;2022-08-24T05:29:27;101155.69;;;23.42;53.80
40788;BME280;26497;52.494;7.546;2022-08-24T05:31:58;101158.72;;;23.55;53.58
40788;BME280;26497;52.494;7.546;2022-08-24T05:34:25;101156.53;;;23.63;53.62
40788;BME280;26497;52.494;7.546;2022-08-24T05:36:52;101164.16;;;23.73;53.51
40788;BME280;26497;52.494;7.546;2022-08-24T05:39:19;101150.88;;;23.87;53.65
40788;BME280;26497;52.494;7.546;2022-08-24T05:41:47;101163.63;;;24.03;53.33
40788;BME280;26497;52.494;7.546;2022-08-24T05:44:16;101160.13;;;24.20;53.07
40788;BME280;26497;52.494;7.546;2022-08-24T05:46:44;101161.78;;;24.40;52.96
40788;BME280;26497;52.494;7.546;2022-08-24T05:49:11;101162.66;;;24.58;52.31
40788;BME280;26497;52.494;7.546;2022-08-24T05:51:38;101155.34;;;24.79;51.40
40788;BME280;26497;52.494;7.546;2022-08-24T05:54:07;101149.13;;;24.95;50.64
40788;BME280;26497;52.494;7.546;2022-08-24T05:56:34;101158.56;;;25.20;49.79
40788;BME280;26497;52.494;7.546;2022-08-24T05:59:02;101160.25;;;25.38;49.11
40788;BME280;26497;52.494;7.546;2022-08-24T06:01:29;101153.81;;;25.58;48.26
40788;BME280;26497;52.494;7.546;2022-08-24T06:03:58;101167.22;;;25.76;47.04
40788;BME280;26497;52.494;7.546;2022-08-24T06:06:25;101164.41;;;25.94;46.44
40788;BME280;26497;52.494;7.546;2022-08-24T06:08:55;101164.22;;;26.13;46.07
40788;BME280;26497;52.494;7.546;2022-08-24T06:11:24;101164.75;;;26.19;44.25
40788;BME280;26497;52.494;7.546;2022-08-24T06:13:52;101162.59;;;26.26;44.59
40788;BME280;26497;52.494;7.546;2022-08-24T06:16:20;101167.16;;;26.40;44.06
40788;BME280;26497;52.494;7.546;2022-08-24T06:18:49;101169.75;;;26.58;43.32
40788;BME280;26497;52.494;7.546;2022-08-24T06:21:18;101170.91;;;26.68;42.60
40788;BME280;26497;52.494;7.546;2022-08-24T06:23:45;101174.69;;;26.80;42.62
40788;BME280;26497;52.494;7.546;2022-08-24T06:26:12;101164.63;;;26.98;41.67
40788;BME280;26497;52.494;7.546;2022-08-24T06:28:57;101175.84;;;27.06;41.36
40788;BME280;26497;52.494;7.546;2022-08-24T06:31:26;101174.47;;;27.28;40.56
40788;BME280;26497;52.494;7.546;2022-08-24T06:33:53;101173.34;;;27.89;39.43
40788;BME280;26497;52.494;7.546;2022-08-24T06:36:20;101173.16;;;29.00;37.43
40788;BME280;26497;52.494;7.546;2022-08-24T06:38:47;101171.31;;;30.14;35.51
40788;BME280;26497;52.494;7.546;2022-08-24T06:41:14;101172.63;;;31.50;32.95
40788;BME280;26497;52.494;7.546;2022-08-24T06:43:41;101168.50;;;32.76;31.02
40788;BME280;26497;52.494;7.546;2022-08-24T06:46:07;101171.31;;;33.89;28.24
40788;BME280;26497;52.494;7.546;2022-08-24T06:48:35;101177.09;;;34.84;27.02
40788;BME280;26497;52.494;7.546;2022-08-24T06:51:08;101183.44;;;35.88;26.06
40788;BME280;26497;52.494;7.546;2022-08-24T06:53:35;101178.19;;;36.85;24.69
40788;BME280;26497;52.494;7.546;2022-08-24T06:56:02;101175.59;;;37.45;23.98
40788;BME280;26497;52.494;7.546;2022-08-24T06:58:29;101175.44;;;37.98;23.17
40788;BME280;26497;52.494;7.546;2022-08-24T07:00:57;101176.34;;;38.23;22.48
40788;BME280;26497;52.494;7.546;2022-08-24T07:03:24;101180.13;;;38.30;21.79
40788;BME280;26497;52.494;7.546;2022-08-24T07:05:53;101171.53;;;38.25;21.82
40788;BME280;26497;52.494;7.546;2022-08-24T07:08:20;101174.28;;;38.58;21.50
40788;BME280;26497;52.494;7.546;2022-08-24T07:10:48;101171.28;;;39.09;20.82
40788;BME280;26497;52.494;7.546;2022-08-24T07:13:15;101186.63;;;39.60;20.49
40788;BME280;26497;52.494;7.546;2022-08-24T07:15:43;101185.25;;;40.19;20.54
40788;BME280;26497;52.494;7.546;2022-08-24T07:18:10;101193.25;;;40.91;19.71
40788;BME280;26497;52.494;7.546;2022-08-24T07:20:37;101186.69;;;41.67;18.26
40788;BME280;26497;52.494;7.546;2022-08-24T07:23:06;101194.59;;;42.07;17.79
40788;BME280;26497;52.494;7.546;2022-08-24T07:25:34;101198.66;;;42.33;17.84
40788;BME280;26497;52.494;7.546;2022-08-24T07:28:01;101200.34;;;42.77;17.70
40788;BME280;26497;52.494;7.546;2022-08-24T07:30:28;101204.59;;;43.01;16.97
40788;BME280;26497;52.494;7.546;2022-08-24T07:32:55;101206.75;;;43.06;16.61
40788;BME280;26497;52.494;7.546;2022-08-24T07:35:23;101204.06;;;42.63;17.24
40788;BME280;26497;52.494;7.546;2022-08-24T07:37:51;101206.84;;;42.63;17.52
40788;BME280;26497;52.494;7.546;2022-08-24T07:40:20;101205.88;;;43.06;16.96
40788;BME280;26497;52.494;7.546;2022-08-24T07:42:47;101205.78;;;42.64;16.79
40788;BME280;26497;52.494;7.546;2022-08-24T07:45:15;101209.31;;;42.79;16.50
40788;BME280;26497;52.494;7.546;2022-08-24T07:47:42;101215.28;;;41.74;17.35
40788;BME280;26497;52.494;7.546;2022-08-24T07:50:09;101220.56;;;41.69;17.65
40788;BME280;26497;52.494;7.546;2022-08-24T07:52:36;101216.72;;;41.10;18.38
40788;BME280;26497;52.494;7.546;2022-08-24T07:55:04;101221.75;;;40.76;18.56
40788;BME280;26497;52.494;7.546;2022-08-24T07:57:32;101221.03;;;41.27;18.38
40788;BME280;26497;52.494;7.546;2022-08-24T08:00:00;101218.38;;;41.34;18.61
40788;BME280;26497;52.494;7.546;2022-08-24T08:02:27;101227.63;;;41.93;18.10
40788;BME280;26497;52.494;7.546;2022-08-24T08:04:54;101223.72;;;41.51;18.00
40788;BME280;26497;52.494;7.546;2022-08-24T08:07:21;101230.78;;;41.68;17.92
40788;BME280;26497;52.494;7.546;2022-08-24T08:09:48;101232.63;;;41.83;18.13
40788;BME280;26497;52.494;7.546;2022-08-24T08:12:15;101229.56;;;42.51;17.22
40788;BME280;26497;52.494;7.546;2022-08-24T08:14:44;101226.81;;;43.43;16.35
40788;BME280;26497;52.494;7.546;2022-08-24T08:17:13;101230.75;;;42.92;16.91
40788;BME280;26497;52.494;7.546;2022-08-24T08:19:41;101237.78;;;42.01;17.94
40788;BME280;26497;52.494;7.546;2022-08-24T08:22:08;101234.09;;;42.15;18.05
40788;BME280;26497;52.494;7.546;2022-08-24T08:24:52;101228.19;;;42.40;18.22
40788;BME280;26497;52.494;7.546;2022-08-24T08:27:20;101234.00;;;42.96;17.60
40788;BME280;26497;52.494;7.546;2022-08-24T08:29:48;101230.63;;;43.36;17.03
40788;BME280;26497;52.494;7.546;2022-08-24T08:32:16;101232.00;;;43.60;17.11
40788;BME280;26497;52.494;7.546;2022-08-24T08:34:44;101233.53;;;44.25;16.36
40788;BME280;26497;52.494;7.546;2022-08-24T08:37:12;101229.69;;;44.32;16.26
40788;BME280;26497;52.494;7.546;2022-08-24T08:39:40;101238.72;;;44.68;15.26
40788;BME280;26497;52.494;7.546;2022-08-24T08:42:26;101235.47;;;44.31;15.84
40788;BME280;26497;52.494;7.546;2022-08-24T08:45:08;101240.81;;;44.46;16.54
40788;BME280;26497;52.494;7.546;2022-08-24T08:51:05;101236.09;;;44.19;16.04
40788;BME280;26497;52.494;7.546;2022-08-24T08:54:00;101238.44;;;44.36;16.10
40788;BME280;26497;52.494;7.546;2022-08-24T08:56:33;101230.06;;;44.09;16.22
40788;BME280;26497;52.494;7.546;2022-08-24T08:59:04;101236.94;;;44.47;16.03
40788;BME280;26497;52.494;7.546;2022-08-24T09:01:40;101230.56;;;44.94;15.85
40788;BME280;26497;52.494;7.546;2022-08-24T09:04:39;101238.69;;;44.48;15.91
40788;BME280;26497;52.494;7.546;2022-08-24T09:07:26;101235.66;;;44.43;15.85
40788;BME280;26497;52.494;7.546;2022-08-24T09:10:20;101241.91;;;44.85;15.48
40788;BME280;26497;52.494;7.546;2022-08-24T09:13:06;101233.19;;;45.54;14.79
40788;BME280;26497;52.494;7.546;2022-08-24T09:15:50;101236.81;;;45.68;14.70
40788;BME280;26497;52.494;7.546;2022-08-24T09:18:29;101234.09;;;45.93;14.52
40788;BME280;26497;52.494;7.546;2022-08-24T09:21:20;101236.47;;;46.29;14.58
40788;BME280;26497;52.494;7.546;2022-08-24T09:23:52;101243.72;;;45.98;14.10
40788;BME280;26497;52.494;7.546;2022-08-24T09:26:27;101242.31;;;45.09;15.07
40788;BME280;26497;52.494;7.546;2022-08-24T09:29:02;101235.91;;;45.74;14.79
40788;BME280;26497;52.494;7.546;2022-08-24T09:31:48;101237.72;;;46.33;14.57
40788;BME280;26497;52.494;7.546;2022-08-24T09:34:44;101233.59;;;47.11;14.18
40788;BME280;26497;52.494;7.546;2022-08-24T09:37:29;101236.94;;;47.58;13.94
40788;BME280;26497;52.494;7.546;2022-08-24T09:40:05;101233.03;;;47.59;13.79
40788;BME280;26497;52.494;7.546;2022-08-24T09:43:10;101235.34;;;47.31;13.26
40788;BME280;26497;52.494;7.546;2022-08-24T09:45:53;101236.69;;;47.03;13.79
40788;BME280;26497;52.494;7.546;2022-08-24T09:51:58;101229.78;;;47.06;13.93
40788;BME280;26497;52.494;7.546;2022-08-24T09:54:51;101230.81;;;46.03;14.40
40788;BME280;26497;52.494;7.546;2022-08-24T09:57:33;101233.06;;;46.27;14.59
40788;BME280;26497;52.494;7.546;2022-08-24T10:00:08;101230.13;;;46.15;14.76
40788;BME280;26497;52.494;7.546;2022-08-24T10:03:05;101234.56;;;45.84;14.88
40788;BME280;26497;52.494;7.546;2022-08-24T10:06:02;101222.53;;;45.90;15.21
40788;BME280;26497;52.494;7.546;2022-08-24T10:08:54;101220.84;;;46.28;14.52
40788;BME280;26497;52.494;7.546;2022-08-24T10:11:26;101220.72;;;46.66;14.60
40788;BME280;26497;52.494;7.546;2022-08-24T10:14:00;101225.31;;;47.23;14.23
40788;BME280;26497;52.494;7.546;2022-08-24T10:16:35;101218.66;;;47.62;13.76
40788;BME280;26497;52.494;7.546;2022-08-24T10:19:23;101219.66;;;47.98;13.81
40788;BME280;26497;52.494;7.546;2022-08-24T10:21:57;101217.47;;;47.69;13.98
40788;BME280;26497;52.494;7.546;2022-08-24T10:24:35;101207.19;;;47.82;14.04
40788;BME280;26497;52.494;7.546;2022-08-24T10:27:15;101218.78;;;47.67;13.62
40788;BME280;26497;52.494;7.546;2022-08-24T10:32:49;101221.28;;;47.01;14.32
40788;BME280;26497;52.494;7.546;2022-08-24T10:35:21;101216.84;;;47.11;13.98
40788;BME280;26497;52.494;7.546;2022-08-24T10:41:13;101216.44;;;47.82;13.46
40788;BME280;26497;52.494;7.546;2022-08-24T10:43:54;101210.28;;;47.62;13.97
40788;BME280;26497;52.494;7.546;2022-08-24T10:46:48;101216.88;;;47.30;14.06
40788;BME280;26497;52.494;7.546;2022-08-24T10:49:45;101205.53;;;46.88;13.79
40788;BME280;26497;52.494;7.546;2022-08-24T10:52:47;101206.03;;;46.27;15.03
40788;BME280;26497;52.494;7.546;2022-08-24T10:55:20;101200.81;;;46.37;14.69
40788;BME280;26497;52.494;7.546;2022-08-24T10:58:27;101205.06;;;45.76;14.52
40788;BME280;26497;52.494;7.546;2022-08-24T11:01:23;101206.28;;;45.87;14.84
40788;BME280;26497;52.494;7.546;2022-08-24T11:03:54;101203.75;;;46.43;14.62
40788;BME280;26497;52.494;7.546;2022-08-24T11:06:22;101205.06;;;46.40;14.70
40788;BME280;26497;52.494;7.546;2022-08-24T11:08:52;101200.28;;;46.73;14.29
40788;BME280;26497;52.494;7.546;2022-08-24T11:11:24;101200.19;;;46.61;14.89
40788;BME280;26497;52.494;7.546;2022-08-24T11:13:55;101196.94;;;46.13;14.85
40788;BME280;26497;52.494;7.546;2022-08-24T11:16:28;101192.81;;;46.16;15.21
40788;BME280;26497;52.494;7.546;2022-08-24T11:18:57;101201.13;;;45.90;15.79
40788;BME280;26497;52.494;7.546;2022-08-24T11:21:42;101202.75;;;46.62;14.51
40788;BME280;26497;52.494;7.546;2022-08-24T11:24:12;101193.16;;;46.58;14.44
40788;BME280;26497;52.494;7.546;2022-08-24T11:26:51;101192.69;;;46.61;14.45
40788;BME280;26497;52.494;7.546;2022-08-24T11:29:21;101192.91;;;47.04;14.07
40788;BME280;26497;52.494;7.546;2022-08-24T11:31:52;101186.69;;;47.39;13.48
40788;BME280;26497;52.494;7.546;2022-08-24T11:34:29;101188.09;;;47.11;14.00
40788;BME280;26497;52.494;7.546;2022-08-24T11:36:57;101191.91;;;47.17;13.98
40788;BME280;26497;52.494;7.546;2022-08-24T11:39:26;101189.81;;;46.43;14.58
40788;BME280;26497;52.494;7.546;2022-08-24T11:41:57;101193.19;;;46.77;14.84
40788;BME280;26497;52.494;7.546;2022-08-24T11:44:46;101182.06;;;47.33;13.95
40788;BME280;26497;52.494;7.546;2022-08-24T11:47:26;101180.88;;;47.22;13.60
40788;BME280;26497;52.494;7.546;2022-08-24T11:50:00;101186.88;;;46.05;15.09
40788;BME280;26497;52.494;7.546;2022-08-24T11:52:35;101185.59;;;46.33;15.00
40788;BME280;26497;52.494;7.546;2022-08-24T11:55:09;101182.94;;;46.20;14.39
40788;BME280;26497;52.494;7.546;2022-08-24T11:57:43;101179.81;;;46.03;14.96
40788;BME280;26497;52.494;7.546;2022-08-24T12:00:16;101178.88;;;46.48;14.52
40788;BME280;26497;52.494;7.546;2022-08-24T12:02:47;101194.81;;;45.70;16.00
40788;BME280;26497;52.494;7.546;2022-08-24T12:05:24;101180.44;;;45.73;15.96
40788;BME280;26497;52.494;7.546;2022-08-24T12:07:59;101181.06;;;45.75;15.23
40788;BME280;26497;52.494;7.546;2022-08-24T12:10:31;101176.16;;;46.02;15.43
40788;BME280;26497;52.494;7.546;2022-08-24T12:13:05;101172.25;;;46.67;14.23
40788;BME280;26497;52.494;7.546;2022-08-24T12:15:39;101177.22;;;45.17;14.85
40788;BME280;26497;52.494;7.546;2022-08-24T12:18:15;101176.91;;;44.59;15.63
40788;BME280;26497;52.494;7.546;2022-08-24T12:20:45;101169.81;;;44.90;15.33
40788;BME280;26497;52.494;7.546;2022-08-24T12:23:16;101167.44;;;45.60;14.98
40788;BME280;26497;52.494;7.546;2022-08-24T12:25:48;101173.28;;;45.90;14.77
40788;BME280;26497;52.494;7.546;2022-08-24T12:28:31;101164.41;;;47.02;14.09
40788;BME280;26497;52.494;7.546;2022-08-24T12:31:04;101172.47;;;46.66;14.14
40788;BME280;26497;52.494;7.546;2022-08-24T12:33:32;101170.22;;;45.60;14.74
40788;BME280;26497;52.494;7.546;2022-08-24T12:36:03;101171.09;;;44.81;15.27
40788;BME280;26497;52.494;7.546;2022-08-24T12:38:36;101170.69;;;44.91;15.28
40788;BME280;26497;52.494;7.546;2022-08-24T12:41:07;101180.09;;;44.56;15.46
40788;BME280;26497;52.494;7.546;2022-08-24T12:43:41;101186.88;;;44.00;15.65
40788;BME280;26497;52.494;7.546;2022-08-24T12:46:12;101171.13;;;44.61;14.71
40788;BME280;26497;52.494;7.546;2022-08-24T12:48:42;101171.88;;;45.15;14.71
40788;BME280;26497;52.494;7.546;2022-08-24T12:51:17;101173.13;;;45.78;14.17
40788;BME280;26497;52.494;7.546;2022-08-24T12:53:54;101169.13;;;46.57;14.36
40788;BME280;26497;52.494;7.546;2022-08-24T12:56:50;101170.94;;;46.19;14.33
40788;BME280;26497;52.494;7.546;2022-08-24T12:59:21;101179.56;;;46.36;13.91
40788;BME280;26497;52.494;7.546;2022-08-24T13:01:59;101170.50;;;46.48;13.93
40788;BME280;26497;52.494;7.546;2022-08-24T13:04:33;101167.16;;;45.16;14.34
40788;BME280;26497;52.494;7.546;2022-08-24T13:07:04;101183.41;;;43.71;15.67
40788;BME280;26497;52.494;7.546;2022-08-24T13:09:32;101165.31;;;42.69;17.17
40788;BME280;26497;52.494;7.546;2022-08-24T13:21:16;101158.00;;;40.54;18.75
40788;BME280;26497;52.494;7.546;2022-08-24T13:30:16;101162.75;;;44.00;16.87
40788;BME280;26497;52.494;7.546;2022-08-24T13:32:45;101151.63;;;45.54;15.14
40788;BME280;26497;52.494;7.546;2022-08-24T13:35:38;101150.44;;;46.32;14.61
40788;BME280;26497;52.494;7.546;2022-08-24T13:41:52;101151.50;;;47.19;13.43
40788;BME280;26497;52.494;7.546;2022-08-24T13:44:35;101149.38;;;47.52;13.23